Time;durP1;ratioP1;P1;durP2;ratioP2;P2;SDS_P1;SDS_P2;PMS_P1;PMS_P2;Temp;Humidity;BMP_temperature;BMP_pressure;BME280_temperature;BME280_humidity;BME280_pressure;Samples;Min_cycle;Max_cycle;Signal;HPM_P1;HPM_P2
2021/06/26 10:01:46;;;;;;;835.80;779.00;;;;;;;;;;5070833;28;20592;-68
2021/06/26 10:04:15;;;;;;;877.40;816.97;;;;;;;;;;5070996;28;20167;-68
2021/06/26 10:06:46;;;;;;;919.25;855.85;;;;;;;;;;5070886;28;20164;-68
2021/06/26 10:09:13;;;;;;;847.83;792.17;;;;;;;;;;5070847;28;20164;-68
2021/06/26 10:11:39;;;;;;;920.70;857.30;;;;;;;;;;5069741;28;20164;-68
2021/06/26 10:14:06;;;;;;;881.05;821.80;;;;;;;;;;5069722;28;20265;-68
2021/06/26 10:16:33;;;;;;;886.08;826.25;;;;;;;;;;5070798;28;20168;-68
2021/06/26 10:19:03;;;;;;;896.35;835.42;;;;;;;;;;5070823;28;20168;-68
2021/06/26 10:21:30;;;;;;;917.13;854.28;;;;;;;;;;5070750;28;20269;-68
2021/06/26 10:23:57;;;;;;;927.78;863.55;;;;;;;;;;5069375;28;20172;-68
2021/06/26 10:26:24;;;;;;;929.65;864.72;;;;;;;;;;5070523;28;20496;-68
2021/06/26 10:28:53;;;;;;;971.25;901.85;;;;;;;;;;5070608;28;20210;-68
2021/06/26 10:31:28;;;;;;;933.95;869.17;;;;;;;;;;5070590;28;20254;-68
2021/06/26 10:33:54;;;;;;;941.38;875.53;;;;;;;;;;5070747;28;20499;-68
2021/06/26 10:36:20;;;;;;;957.22;889.20;;;;;;;;;;5070407;28;20172;-68
2021/06/26 10:38:46;;;;;;;968.80;900.03;;;;;;;;;;5070347;28;20241;-68
2021/06/26 10:41:20;;;;;;;928.42;864.17;;;;;;;;;;5070173;28;20555;-68
2021/06/26 10:43:56;;;;;;;969.88;900.08;;;;;;;;;;5069017;28;20182;-68
2021/06/26 10:46:22;;;;;;;939.03;873.67;;;;;;;;;;5070123;28;20587;-68
2021/06/26 10:48:59;;;;;;;961.33;892.97;;;;;;;;;;5070277;28;20172;-68
2021/06/26 10:51:35;;;;;;;985.92;914.10;;;;;;;;;;5070076;28;20172;-68
2021/06/26 10:54:10;;;;;;;991.95;919.58;;;;;;;;;;5069970;28;20175;-68
2021/06/26 10:56:36;;;;;;;1020.50;943.78;;;;;;;;;;5070139;28;20241;-68
2021/06/26 10:59:09;;;;;;;955.97;888.75;;;;;;;;;;5070220;28;20172;-68
2021/06/26 11:01:35;;;;;;;904.33;843.55;;;;;;;;;;5069658;28;20255;-68
2021/06/26 11:04:19;;;;;;;985.03;914.40;;;;;;;;;;5068542;28;20229;-68
2021/06/26 11:06:45;;;;;;;986.35;915.22;;;;;;;;;;5069727;28;20171;-68
2021/06/26 11:09:13;;;;;;;978.83;908.85;;;;;;;;;;5069655;28;20168;-68
2021/06/26 11:11:40;;;;;;;1057.63;975.78;;;;;;;;;;5063268;28;20173;-68
2021/06/26 11:14:18;;;;;;;945.60;878.95;;;;;;;;;;5055214;28;20177;-68
2021/06/26 11:16:50;;;;;;;976.65;907.15;;;;;;;;;;5056673;28;20167;-68
2021/06/26 11:19:16;;;;;;;881.25;822.72;;;;;;;;;;5056454;28;20173;-68
2021/06/26 11:21:50;;;;;;;904.78;844.33;;;;;;;;;;5056116;28;20236;-68
2021/06/26 11:24:16;;;;;;;929.40;865.53;;;;;;;;;;5056281;28;20171;-68
2021/06/26 11:26:49;;;;;;;951.78;886.13;;;;;;;;;;5056254;28;20167;-68
2021/06/26 11:29:29;;;;;;;875.40;817.83;;;;;;;;;;5055015;28;20170;-68
2021/06/26 11:31:55;;;;;;;885.05;825.20;;;;;;;;;;5056038;28;20170;-68
2021/06/26 11:34:22;;;;;;;867.10;811.00;;;;;;;;;;5056339;28;20165;-68
2021/06/26 11:37:02;;;;;;;786.58;737.63;;;;;;;;;;5056088;28;20183;-68
2021/06/26 11:39:28;;;;;;;722.95;679.42;;;;;;;;;;5055861;28;20161;-68
2021/06/26 11:41:54;;;;;;;741.67;696.35;;;;;;;;;;5055936;28;20192;-68
2021/06/26 11:44:30;;;;;;;815.00;763.67;;;;;;;;;;5055859;28;20169;-65
2021/06/26 11:47:00;;;;;;;779.70;731.47;;;;;;;;;;5055767;28;20222;-66
2021/06/26 11:49:33;;;;;;;850.70;796.13;;;;;;;;;;5055500;28;20669;-66
2021/06/26 11:51:59;;;;;;;791.97;742.80;;;;;;;;;;5055776;28;20164;-66
2021/06/26 11:54:25;;;;;;;843.28;788.80;;;;;;;;;;5055693;28;20169;-66
2021/06/26 11:56:51;;;;;;;865.47;808.85;;;;;;;;;;5055596;28;20174;-66
2021/06/26 11:59:17;;;;;;;888.08;829.45;;;;;;;;;;5055690;28;20165;-66
2021/06/26 12:01:46;;;;;;;936.38;872.92;;;;;;;;;;5055370;28;20200;-66
2021/06/26 12:04:12;;;;;;;939.03;875.28;;;;;;;;;;5055378;28;20176;-66
2021/06/26 12:06:41;;;;;;;901.20;841.70;;;;;;;;;;5054205;28;20235;-66
2021/06/26 12:09:07;;;;;;;837.88;784.58;;;;;;;;;;5055501;28;20606;-66
2021/06/26 12:11:37;;;;;;;842.83;788.25;;;;;;;;;;5055223;28;20226;-66
2021/06/26 12:14:04;;;;;;;964.20;896.72;;;;;;;;;;5055286;28;20228;-66
2021/06/26 12:16:35;;;;;;;661.45;621.92;;;;;;;;;;5054081;28;20176;-66
2021/06/26 12:19:05;;;;;;;626.67;590.40;;;;;;;;;;5055231;28;20164;-66
2021/06/26 12:22:03;;;;;;;686.13;645.03;;;;;;;;;;5055405;28;20195;-66
2021/06/26 12:24:42;;;;;;;594.30;560.40;;;;;;;;;;5042095;28;20188;-66
2021/06/26 12:27:21;;;;;;;508.95;481.85;;;;;;;;;;5055118;28;20191;-66
2021/06/26 12:30:16;;;;;;;596.08;561.90;;;;;;;;;;5054982;28;20168;-66
2021/06/26 12:32:43;;;;;;;668.80;629.05;;;;;;;;;;5054330;28;20180;-66
2021/06/26 12:35:10;;;;;;;749.60;703.25;;;;;;;;;;5053703;28;20183;-66
2021/06/26 12:37:40;;;;;;;570.60;537.55;;;;;;;;;;5054977;28;20168;-66
2021/06/26 12:40:06;;;;;;;645.95;606.92;;;;;;;;;;5054724;28;20649;-66
2021/06/26 12:42:36;;;;;;;582.00;548.15;;;;;;;;;;5054599;28;20172;-67
2021/06/26 12:45:02;;;;;;;595.00;559.78;;;;;;;;;;5053565;28;20585;-67
2021/06/26 12:47:28;;;;;;;698.97;655.53;;;;;;;;;;5054736;28;20180;-67
2021/06/26 12:50:01;;;;;;;838.90;782.05;;;;;;;;;;5054617;28;20169;-67
2021/06/26 12:52:27;;;;;;;765.22;715.28;;;;;;;;;;5054522;28;20180;-67
2021/06/26 12:54:54;;;;;;;831.15;774.67;;;;;;;;;;5054618;28;20290;-67
2021/06/26 12:57:21;;;;;;;758.63;709.20;;;;;;;;;;5054406;28;20271;-67
2021/06/26 12:59:47;;;;;;;733.40;686.55;;;;;;;;;;5054212;28;20223;-67
2021/06/26 13:02:13;;;;;;;496.40;468.77;;;;;;;;;;5054311;28;20165;-67
2021/06/26 13:04:43;;;;;;;831.00;775.25;;;;;;;;;;5053095;28;20176;-66
2021/06/26 13:07:18;;;;;;;611.83;575.00;;;;;;;;;;5054323;28;20176;-67
2021/06/26 13:09:45;;;;;;;761.63;712.60;;;;;;;;;;5054116;28;20210;-66
2021/06/26 13:12:16;;;;;;;601.60;565.78;;;;;;;;;;5054318;28;20164;-67
2021/06/26 13:14:43;;;;;;;434.38;410.95;;;;;;;;;;5054205;28;20546;-67
2021/06/26 13:17:09;;;;;;;610.75;574.30;;;;;;;;;;5054114;28;20243;-66
2021/06/26 13:19:35;;;;;;;352.90;335.33;;;;;;;;;;5053908;28;20188;-66
2021/06/26 13:22:01;;;;;;;530.78;500.27;;;;;;;;;;5054046;28;20171;-67
2021/06/26 13:24:27;;;;;;;705.00;661.25;;;;;;;;;;5054091;28;20171;-67
2021/06/26 13:26:53;;;;;;;845.38;788.55;;;;;;;;;;5054138;28;20219;-67
2021/06/26 13:29:19;;;;;;;823.78;768.78;;;;;;;;;;5054172;28;20160;-67
2021/06/26 13:31:46;;;;;;;719.58;674.38;;;;;;;;;;5054090;28;20585;-67
2021/06/26 13:34:12;;;;;;;514.08;484.80;;;;;;;;;;5053869;28;20172;-67
2021/06/26 13:36:38;;;;;;;439.25;416.23;;;;;;;;;;5054076;28;20518;-67
2021/06/26 13:39:14;;;;;;;497.02;469.13;;;;;;;;;;5053893;28;20488;-67
2021/06/26 13:41:40;;;;;;;846.22;787.95;;;;;;;;;;5053837;28;20567;-67
2021/06/26 13:44:06;;;;;;;726.55;680.25;;;;;;;;;;5052593;28;20268;-67
2021/06/26 13:46:32;;;;;;;905.45;838.10;;;;;;;;;;5053626;28;20532;-67
2021/06/26 13:48:58;;;;;;;954.25;882.13;;;;;;;;;;5053615;28;20181;-67
2021/06/26 13:51:26;;;;;;;859.53;800.15;;;;;;;;;;5053644;28;20203;-67
2021/06/26 13:53:52;;;;;;;825.72;769.05;;;;;;;;;;5053631;28;20164;-67
2021/06/26 13:56:18;;;;;;;831.55;774.25;;;;;;;;;;5053450;28;20723;-67
2021/06/26 13:58:44;;;;;;;766.03;715.13;;;;;;;;;;5053552;28;20164;-67
2021/06/26 14:01:10;;;;;;;887.55;823.78;;;;;;;;;;5053463;28;20208;-67
2021/06/26 14:03:36;;;;;;;973.17;898.45;;;;;;;;;;5053660;28;20582;-67
2021/06/26 14:06:02;;;;;;;1013.88;933.75;;;;;;;;;;5053448;28;20188;-67
2021/06/26 14:08:28;;;;;;;980.35;903.83;;;;;;;;;;5052293;28;20207;-67
2021/06/26 14:10:54;;;;;;;872.22;810.67;;;;;;;;;;5053131;28;20549;-67
2021/06/26 14:13:20;;;;;;;991.80;914.22;;;;;;;;;;5053305;28;20171;-67
2021/06/26 14:15:47;;;;;;;964.95;892.67;;;;;;;;;;5053229;28;20176;-67
2021/06/26 14:18:13;;;;;;;821.70;767.22;;;;;;;;;;5053260;28;20173;-67
2021/06/26 14:20:39;;;;;;;453.33;428.98;;;;;;;;;;5053035;28;20250;-67
2021/06/26 14:23:05;;;;;;;653.33;612.85;;;;;;;;;;5053423;28;20211;-67
2021/06/26 14:25:31;;;;;;;877.13;816.67;;;;;;;;;;5053298;28;20168;-67
2021/06/26 14:27:57;;;;;;;865.20;805.58;;;;;;;;;;5053245;28;20195;-67
2021/06/26 14:30:23;;;;;;;815.28;760.67;;;;;;;;;;5053207;28;20181;-67
2021/06/26 14:32:50;;;;;;;863.20;803.83;;;;;;;;;;5053312;28;20169;-67
2021/06/26 14:35:16;;;;;;;864.83;804.70;;;;;;;;;;5053278;28;20610;-67
2021/06/26 14:37:42;;;;;;;893.72;829.85;;;;;;;;;;5053057;28;20169;-67
2021/06/26 14:40:09;;;;;;;1013.03;933.42;;;;;;;;;;5052819;28;20176;-67
2021/06/26 14:42:35;;;;;;;941.80;871.10;;;;;;;;;;5052914;28;20544;-68
2021/06/26 14:45:01;;;;;;;905.63;841.00;;;;;;;;;;5053048;28;20247;-67
2021/06/26 14:47:27;;;;;;;761.70;712.08;;;;;;;;;;5054833;28;20608;-67
2021/06/26 14:49:54;;;;;;;860.42;801.35;;;;;;;;;;5056608;28;20676;-67
2021/06/26 14:52:20;;;;;;;901.65;837.10;;;;;;;;;;5056972;28;20467;-67
2021/06/26 14:54:46;;;;;;;916.55;850.83;;;;;;;;;;5056787;28;20160;-67
2021/06/26 14:57:13;;;;;;;825.42;769.65;;;;;;;;;;5056809;28;20565;-68
2021/06/26 14:59:39;;;;;;;970.00;897.40;;;;;;;;;;5056501;28;20227;-68
2021/06/26 15:02:05;;;;;;;1014.90;936.13;;;;;;;;;;5055463;28;20182;-69
2021/06/26 15:04:31;;;;;;;1040.20;957.17;;;;;;;;;;5056504;28;20169;-69
2021/06/26 15:06:57;;;;;;;1015.65;937.83;;;;;;;;;;5055614;28;20671;-69
2021/06/26 15:09:23;;;;;;;953.20;882.45;;;;;;;;;;5056411;28;20168;-69
2021/06/26 15:11:49;;;;;;;998.28;922.90;;;;;;;;;;5056633;28;20242;-69
2021/06/26 15:14:15;;;;;;;936.85;870.08;;;;;;;;;;5056474;28;20614;-68
2021/06/26 15:16:41;;;;;;;980.88;908.28;;;;;;;;;;5056503;28;20165;-68
2021/06/26 15:19:07;;;;;;;1013.72;936.72;;;;;;;;;;5054915;28;20660;-68
2021/06/26 15:21:33;;;;;;;1018.40;940.50;;;;;;;;;;5056346;28;20172;-68
2021/06/26 15:23:59;;;;;;;969.47;898.22;;;;;;;;;;5056390;28;20169;-68
2021/06/26 15:26:26;;;;;;;945.47;878.85;;;;;;;;;;5056259;28;20169;-68
2021/06/26 15:28:53;;;;;;;1004.22;929.17;;;;;;;;;;5054977;28;20251;-68
2021/06/26 15:31:19;;;;;;;1044.07;962.17;;;;;;;;;;5056055;28;20211;-68
2021/06/26 15:33:45;;;;;;;1050.90;968.20;;;;;;;;;;5054800;28;20251;-69
2021/06/26 15:36:11;;;;;;;1041.82;961.28;;;;;;;;;;5056092;28;20196;-69
2021/06/26 15:38:37;;;;;;;1022.17;943.67;;;;;;;;;;5056026;28;20167;-69
2021/06/26 15:41:04;;;;;;;1089.35;997.65;;;;;;;;;;5056158;28;20168;-69
2021/06/26 15:43:30;;;;;;;967.53;897.15;;;;;;;;;;5055855;28;20215;-69
2021/06/26 15:45:56;;;;;;;958.10;889.08;;;;;;;;;;5055799;28;20173;-69
2021/06/26 15:48:23;;;;;;;1043.00;962.58;;;;;;;;;;5055813;28;20175;-69
2021/06/26 15:50:50;;;;;;;1047.47;965.05;;;;;;;;;;5055593;28;20215;-69
2021/06/26 15:53:16;;;;;;;1044.10;962.38;;;;;;;;;;5054732;28;20263;-69
2021/06/26 15:55:42;;;;;;;959.17;889.65;;;;;;;;;;5054607;28;20615;-68
2021/06/26 15:58:09;;;;;;;1111.32;999.90;;;;;;;;;;5054406;28;20270;-69
2021/06/26 16:00:36;;;;;;;1043.50;961.30;;;;;;;;;;5054134;28;20227;-68
2021/06/26 16:03:02;;;;;;;1055.25;972.42;;;;;;;;;;5055655;28;20634;-68
2021/06/26 16:05:28;;;;;;;1014.92;938.25;;;;;;;;;;5055273;28;20222;-68
2021/06/26 16:07:54;;;;;;;1019.45;941.35;;;;;;;;;;5054325;28;20180;-68
2021/06/26 16:10:20;;;;;;;1049.95;966.97;;;;;;;;;;5055207;28;20249;-69
2021/06/26 16:12:49;;;;;;;980.80;908.42;;;;;;;;;;5055570;28;20183;-68
2021/06/26 16:15:15;;;;;;;983.92;910.75;;;;;;;;;;5055490;28;20165;-69
2021/06/26 16:17:41;;;;;;;947.20;877.83;;;;;;;;;;5055401;28;20519;-69
2021/06/26 16:20:07;;;;;;;1053.13;966.33;;;;;;;;;;5055337;28;20192;-69
2021/06/26 16:22:34;;;;;;;962.47;890.92;;;;;;;;;;5055348;28;20168;-69
2021/06/26 16:25:01;;;;;;;740.63;693.60;;;26.80;99.90;;;;;;5055117;28;20179;-69
2021/06/26 16:27:26;;;;;;;733.75;686.45;;;26.90;99.90;;;;;;5055157;28;20187;-69
2021/06/26 16:29:52;;;;;;;839.97;782.78;;;27.20;99.90;;;;;;5055086;28;20649;-69
2021/06/26 16:32:18;;;;;;;714.13;668.92;;;27.10;99.90;;;;;;5054875;28;20173;-69
2021/06/26 16:34:44;;;;;;;969.63;895.28;;;26.90;99.90;;;;;;5055272;28;20161;-69
2021/06/26 16:37:09;;;;;;;946.63;876.90;;;26.90;99.90;;;;;;5054755;28;20255;-69
2021/06/26 16:39:45;;;;;;;874.33;811.67;;;27.00;99.90;;;;;;5054773;28;20208;-69
2021/06/26 16:42:11;;;;;;;853.42;793.78;;;26.90;99.90;;;;;;5054715;28;20161;-69
2021/06/26 16:44:37;;;;;;;802.53;748.30;;;26.80;99.90;;;;;;5054906;28;20175;-69
2021/06/26 16:47:03;;;;;;;875.00;814.40;;;26.50;99.90;;;;;;5054724;28;20169;-69
2021/06/26 16:49:29;;;;;;;784.65;732.30;;;26.40;99.90;;;;;;5054624;28;20173;-69
2021/06/26 16:51:54;;;;;;;954.35;882.05;;;26.10;99.90;;;;;;5054400;28;20215;-69
2021/06/26 16:54:20;;;;;;;886.90;824.50;;;25.90;99.90;;;;;;5054576;28;20621;-69
2021/06/26 16:56:45;;;;;;;787.33;735.72;;;25.60;99.90;;;;;;5054555;28;20183;-68
2021/06/26 16:59:11;;;;;;;961.13;890.15;;;25.40;99.90;;;;;;5053332;28;20573;-69
2021/06/26 17:01:37;;;;;;;923.70;858.30;;;25.20;99.90;;;;;;5054499;28;20239;-69
2021/06/26 17:04:02;;;;;;;933.65;866.30;;;25.10;99.90;;;;;;5054269;28;20172;-69
2021/06/26 17:06:28;;;;;;;904.20;841.33;;;24.90;99.90;;;;;;5054314;28;20652;-69
2021/06/26 17:08:54;;;;;;;878.38;818.85;;;24.80;99.90;;;;;;5054211;28;20259;-69
2021/06/26 17:11:19;;;;;;;795.17;744.10;;;24.80;99.90;;;;;;5053794;28;20188;-69
2021/06/26 17:13:45;;;;;;;844.72;789.47;;;24.70;99.90;;;;;;5054213;28;20187;-69
2021/06/26 17:16:11;;;;;;;716.85;672.60;;;24.60;99.90;;;;;;5054110;28;20271;-69
2021/06/26 17:18:36;;;;;;;784.53;735.17;;;24.50;99.90;;;;;;5054118;28;20244;-68
2021/06/26 17:21:04;;;;;;;914.03;851.15;;;24.50;99.90;;;;;;5054079;28;20221;-68
2021/06/26 17:23:29;;;;;;;891.50;831.85;;;24.50;99.90;;;;;;5053877;28;20179;-68
2021/06/26 17:25:56;;;;;;;940.33;875.22;;;24.50;99.90;;;;;;5053944;28;20168;-69
2021/06/26 17:28:27;;;;;;;955.78;887.63;;;24.70;99.90;;;;;;5053983;28;20169;-69
2021/06/26 17:30:54;;;;;;;928.13;863.30;;;25.00;99.90;;;;;;5052819;28;20208;-69
2021/06/26 17:33:20;;;;;;;921.70;856.58;;;25.40;99.90;;;;;;5052699;28;20176;-69
2021/06/26 17:35:47;;;;;;;996.83;920.97;;;25.70;99.90;;;;;;5053900;28;20170;-69
2021/06/26 17:38:13;;;;;;;943.40;874.28;;;26.00;99.90;;;;;;5053873;28;20211;-69
2021/06/26 17:40:39;;;;;;;911.05;846.60;;;26.20;99.90;;;;;;5053758;28;20168;-69
2021/06/26 17:43:04;;;;;;;867.42;808.30;;;26.40;99.90;;;;;;5053739;28;20207;-69
2021/06/26 17:45:30;;;;;;;909.78;844.05;;;26.50;99.90;;;;;;5053715;28;20168;-69
2021/06/26 17:47:56;;;;;;;744.95;696.47;;;26.50;99.90;;;;;;5053897;28;20315;-69
2021/06/26 17:50:25;;;;;;;883.92;821.33;;;26.50;99.90;;;;;;5053787;28;20696;-69
2021/06/26 17:52:51;;;;;;;901.80;836.92;;;26.50;99.90;;;;;;5053590;28;20164;-69
2021/06/26 17:55:17;;;;;;;886.08;823.88;;;26.60;99.90;;;;;;5053460;28;20198;-69
2021/06/26 17:57:42;;;;;;;831.55;774.47;;;26.50;99.90;;;;;;5053629;28;20168;-69
2021/06/26 18:00:11;;;;;;;681.97;639.55;;;26.50;99.90;;;;;;5053391;28;20227;-69
2021/06/26 18:02:38;;;;;;;849.38;790.97;;;26.40;99.90;;;;;;5053398;28;20161;-69
2021/06/26 18:05:05;;;;;;;758.33;708.97;;;26.50;99.90;;;;;;5053548;28;20200;-69
2021/06/26 18:07:31;;;;;;;814.72;759.83;;;26.50;99.90;;;;;;5053469;28;20255;-69
2021/06/26 18:09:57;;;;;;;732.80;685.50;;;26.50;99.90;;;;;;5053384;28;20358;-69
2021/06/26 18:12:23;;;;;;;881.05;819.55;;;26.30;99.90;;;;;;5053552;28;20156;-69
2021/06/26 18:14:49;;;;;;;890.05;827.50;;;26.30;99.90;;;;;;5052218;28;20179;-69
2021/06/26 18:17:14;;;;;;;835.28;777.47;;;26.30;99.90;;;;;;5053354;28;20606;-69
2021/06/26 18:19:41;;;;;;;829.60;773.35;;;26.20;99.90;;;;;;5053413;28;20259;-69
2021/06/26 18:22:06;;;;;;;818.25;763.75;;;26.10;99.90;;;;;;5054854;28;20175;-69
2021/06/26 18:24:33;;;;;;;868.88;809.38;;;26.00;99.90;;;;;;5057500;28;20168;-69
2021/06/26 18:26:58;;;;;;;806.75;752.95;;;25.80;99.90;;;;;;5057417;28;20229;-68
2021/06/26 18:29:24;;;;;;;892.00;829.38;;;25.60;99.90;;;;;;5056246;28;20173;-68
2021/06/26 18:31:50;;;;;;;859.00;800.90;;;25.50;99.90;;;;;;5057322;28;20683;-68
2021/06/26 18:34:15;;;;;;;935.97;868.30;;;25.30;99.90;;;;;;5056073;28;20176;-68
2021/06/26 18:36:41;;;;;;;922.15;857.20;;;25.20;99.90;;;;;;5057195;28;20184;-67
2021/06/26 18:39:06;;;;;;;902.15;839.85;;;25.00;99.90;;;;;;5056916;28;20555;-67
2021/06/26 18:41:34;;;;;;;881.00;821.25;;;24.80;99.90;;;;;;5057048;28;20176;-67
2021/06/26 18:44:00;;;;;;;941.67;875.20;;;24.60;99.90;;;;;;5056722;28;20233;-67
2021/06/26 18:46:25;;;;;;;930.30;865.40;;;24.30;99.90;;;;;;5056845;28;20625;-66
2021/06/26 18:48:51;;;;;;;961.25;893.30;;;24.20;99.90;;;;;;5056726;28;20173;-66
2021/06/26 18:51:17;;;;;;;981.42;910.70;;;24.10;99.90;;;;;;5056763;28;20653;-67
2021/06/26 18:53:42;;;;;;;998.55;925.63;;;24.10;99.90;;;;;;5056770;28;20252;-67
2021/06/26 18:56:08;;;;;;;976.38;907.05;;;24.10;99.90;;;;;;5056980;28;20182;-67
2021/06/26 18:58:46;;;;;;;957.13;890.30;;;24.00;99.90;;;;;;5056829;28;20553;-67
2021/06/26 19:01:17;;;;;;;907.15;846.45;;;23.90;99.90;;;;;;5056805;28;20215;-66
2021/06/26 19:03:44;;;;;;;953.45;887.92;;;23.70;99.90;;;;;;5056567;28;20252;-67
2021/06/26 19:06:11;;;;;;;961.03;894.95;;;23.50;99.90;;;;;;5055352;28;20190;-67
2021/06/26 19:08:37;;;;;;;911.38;851.03;;;23.40;99.90;;;;;;5056337;28;20230;-67
2021/06/26 19:11:04;;;;;;;920.65;858.67;;;23.30;99.90;;;;;;5056472;28;20204;-67
2021/06/26 19:13:30;;;;;;;937.50;873.95;;;23.10;99.90;;;;;;5056574;28;20161;-67
